KBIX/BIX METAR and TAF weather

Enter ICAO airport designator
Station Type Date Time Source
KBIX METAR 2019/08/21 09:56 UTC NOAA

KBIX 210956Z AUTO 20005KT 10SM CLR 26/24 A3002 RMK AO2 SLP168 T02630241


Station Type Date Time Source
KBIX Decoded METAR 2019/08/21 09:56 UTC NOAA

Station name not available
Aug 21, 2019 - 05:56 AM EDT / 2019.08.21 0956 UTC
Wind: from the SSW (200 degrees) at 6 MPH (5 KT):0
Visibility: 10 mile(s):0
Sky conditions: clear
Temperature: 79.3 F (26.3 C)
Dew Point: 75.4 F (24.1 C)
Relative Humidity: 87%
Pressure (altimeter): 30.02 in. Hg (1016 hPa)
ob: KBIX 210956Z AUTO 20005KT 10SM CLR 26/24 A3002 RMK AO2 SLP168 T02630241
cycle: 10

Station Type Date Time Source
KBIX TAF 2019/08/21 02:06 UTC NOAA

TAF KBIX 210200Z 2102/2208 20009KT 9999 VCSH SCT020 QNH3000INS
BECMG 2103/2104 18006KT 9999 NSW BKN020 QNH3003INS
BECMG 2105/2106 17006KT 9999 BKN015 QNH3004INS
BECMG 2114/2115 14009KT 9999 SCT015 SCT040 QNH3000INS
TEMPO 2119/2124 6000 -TSRA OVC040CB
BECMG 2202/2203 13006KT 9000 BR BKN027 QNH3002INS TX32/2121Z TN25/2110Z LAST NO
AMDS AFT 2104 NEXT 2110

Example: see airport list